createdAt,value
2022-09-29T00:01:22.092Z,82.77
2022-09-29T00:04:46.032Z,82.20
2022-09-29T00:08:07.579Z,81.91
2022-09-29T00:11:29.144Z,82.46
2022-09-29T00:14:55.482Z,82.40
2022-09-29T00:18:16.994Z,83.06
2022-09-29T00:21:38.551Z,83.12
2022-09-29T00:25:00.083Z,82.21
2022-09-29T00:28:23.716Z,82.42
2022-09-29T00:31:45.279Z,82.87
2022-09-29T00:35:08.532Z,82.96
2022-09-29T00:38:34.468Z,83.54
2022-09-29T00:41:57.913Z,83.77
2022-09-29T00:45:29.007Z,83.68
2022-09-29T00:48:55.743Z,83.86
2022-09-29T00:52:26.015Z,84.00
2022-09-29T00:55:53.027Z,84.49
2022-09-29T00:59:20.080Z,84.83
2022-09-29T01:02:59.649Z,84.66
2022-09-29T01:06:34.672Z,84.60
2022-09-29T01:09:58.546Z,84.77
2022-09-29T01:13:22.287Z,85.36
2022-09-29T01:16:44.191Z,85.05
2022-09-29T01:20:13.021Z,85.19
2022-09-29T01:23:52.721Z,84.72
2022-09-29T01:27:32.372Z,84.04
2022-09-29T01:31:13.018Z,84.63
2022-09-29T01:34:44.688Z,85.25
2022-09-29T01:38:18.226Z,85.38
2022-09-29T01:41:48.789Z,85.26
2022-09-29T01:45:23.929Z,85.09
2022-09-29T01:48:50.384Z,84.92
2022-09-29T01:52:21.858Z,84.98
2022-09-29T01:55:50.676Z,85.22
2022-09-29T01:59:30.989Z,85.28
2022-09-29T02:03:07.701Z,86.36
2022-09-29T02:06:40.376Z,87.40
2022-09-29T02:10:07.551Z,87.82
2022-09-29T02:13:40.926Z,86.96
2022-09-29T02:17:12.285Z,86.37
2022-09-29T02:20:34.386Z,86.09
2022-09-29T02:24:00.426Z,85.86
2022-09-29T02:27:25.807Z,85.17
2022-09-29T02:30:50.855Z,85.32
2022-09-29T02:34:18.747Z,85.22
2022-09-29T02:37:55.599Z,84.87
2022-09-29T02:41:28.274Z,85.63
2022-09-29T02:44:58.371Z,86.49
2022-09-29T02:48:31.974Z,86.38
2022-09-29T02:51:58.663Z,85.92
2022-09-29T02:55:35.239Z,85.85
2022-09-29T02:59:07.317Z,85.35
2022-09-29T03:02:31.344Z,85.33
2022-09-29T03:05:56.820Z,85.28
2022-09-29T03:09:18.669Z,85.04
2022-09-29T03:12:42.693Z,85.31
2022-09-29T03:16:04.320Z,85.27
2022-09-29T03:19:25.835Z,85.48
2022-09-29T03:22:47.482Z,85.53
2022-09-29T03:26:11.209Z,85.35
2022-09-29T03:29:32.783Z,85.71
2022-09-29T03:32:56.511Z,86.55
2022-09-29T03:36:18.046Z,87.47
2022-09-29T03:39:47.059Z,87.12
2022-09-29T03:43:08.659Z,86.89
2022-09-29T03:46:35.071Z,86.88
2022-09-29T03:49:56.746Z,87.29
2022-09-29T03:53:23.364Z,86.61
2022-09-29T03:56:47.683Z,87.05
2022-09-29T04:00:10.048Z,87.43
2022-09-29T04:03:31.606Z,87.44
2022-09-29T04:06:53.101Z,87.63
2022-09-29T04:10:15.020Z,87.52
2022-09-29T04:13:36.601Z,86.65
2022-09-29T04:16:58.135Z,86.92
2022-09-29T04:20:19.724Z,87.39
2022-09-29T04:23:43.538Z,87.68
2022-09-29T04:27:05.050Z,87.50
2022-09-29T04:30:26.607Z,88.06
2022-09-29T04:33:50.594Z,88.01
2022-09-29T04:37:12.130Z,87.39
2022-09-29T04:40:34.734Z,88.12
2022-09-29T04:43:59.410Z,88.28
2022-09-29T04:47:20.929Z,88.23
2022-09-29T04:50:43.353Z,87.86
2022-09-29T04:54:07.619Z,88.01
2022-09-29T04:57:29.159Z,88.31
2022-09-29T05:00:50.799Z,88.13
2022-09-29T05:04:13.632Z,88.51
2022-09-29T05:07:40.102Z,88.29
2022-09-29T05:11:06.549Z,88.63
2022-09-29T05:14:28.176Z,88.52
2022-09-29T05:17:52.029Z,88.56
2022-09-29T05:21:31.435Z,88.28
2022-09-29T05:24:58.227Z,88.09
2022-09-29T05:28:19.752Z,87.85
2022-09-29T05:31:43.613Z,87.99
2022-09-29T05:35:05.606Z,88.67
2022-09-29T05:38:30.009Z,89.10
2022-09-29T05:41:56.535Z,88.61
2022-09-29T05:45:21.158Z,88.21
2022-09-29T05:48:48.819Z,87.96
2022-09-29T05:52:12.901Z,90.80
2022-09-29T05:55:36.745Z,91.67
2022-09-29T05:58:58.485Z,91.50
2022-09-29T06:02:20.089Z,90.64
2022-09-29T06:05:41.964Z,90.52
2022-09-29T06:09:03.621Z,90.74
2022-09-29T06:12:25.200Z,89.94
2022-09-29T06:15:49.179Z,89.94
2022-09-29T06:19:10.717Z,89.76
2022-09-29T06:22:34.564Z,89.55
2022-09-29T06:26:02.024Z,89.63
2022-09-29T06:29:26.055Z,89.94
2022-09-29T06:32:47.616Z,90.40
2022-09-29T06:36:34.976Z,90.10
2022-09-29T06:39:58.592Z,89.72
2022-09-29T06:43:20.291Z,90.02
2022-09-29T06:46:45.390Z,90.22
2022-09-29T06:50:10.897Z,90.17
2022-09-29T06:53:45.654Z,89.84
2022-09-29T06:57:07.182Z,89.68
2022-09-29T07:00:31.298Z,89.82
2022-09-29T07:03:53.103Z,89.98
2022-09-29T07:07:15.874Z,90.27
2022-09-29T07:10:39.758Z,90.07
2022-09-29T07:14:01.460Z,90.82
2022-09-29T07:17:23.137Z,90.96
2022-09-29T07:20:46.966Z,89.95
2022-09-29T07:24:09.177Z,89.78
2022-09-29T07:27:38.607Z,89.45
2022-09-29T07:31:13.695Z,88.27
2022-09-29T07:34:36.215Z,88.74
2022-09-29T07:38:02.381Z,89.02
2022-09-29T07:41:26.198Z,88.63
2022-09-29T07:44:52.203Z,87.35
2022-09-29T07:48:14.122Z,88.15
2022-09-29T07:51:35.749Z,89.22
2022-09-29T07:54:57.582Z,88.76
2022-09-29T07:58:19.139Z,87.11
2022-09-29T08:01:40.931Z,87.93
2022-09-29T08:05:07.647Z,85.62
2022-09-29T08:08:29.724Z,86.17
2022-09-29T08:12:02.335Z,86.65
2022-09-29T08:15:30.250Z,87.13
2022-09-29T08:18:51.827Z,87.39
2022-09-29T08:22:13.364Z,88.18
2022-09-29T08:25:41.269Z,88.76
2022-09-29T08:29:08.162Z,87.68
2022-09-29T08:32:33.756Z,87.21
2022-09-29T08:35:57.200Z,88.71
2022-09-29T08:39:20.600Z,87.18
2022-09-29T08:43:06.486Z,86.19
2022-09-29T08:46:36.344Z,85.40
2022-09-29T08:50:11.334Z,85.44
2022-09-29T08:53:37.932Z,85.78
2022-09-29T08:57:00.940Z,85.08
2022-09-29T09:00:30.383Z,85.22
2022-09-29T09:04:09.766Z,85.99
2022-09-29T09:08:24.049Z,86.54
2022-09-29T09:12:08.961Z,87.59
2022-09-29T09:15:54.880Z,84.59
2022-09-29T09:19:49.972Z,85.54
2022-09-29T09:23:21.464Z,84.41
2022-09-29T09:26:45.468Z,85.56
2022-09-29T09:30:16.932Z,83.62
2022-09-29T09:34:04.272Z,82.17
2022-09-29T09:37:39.408Z,79.07
2022-09-29T09:41:02.164Z,81.38
2022-09-29T09:44:37.103Z,81.56
2022-09-29T09:48:23.549Z,78.18
2022-09-29T09:55:40.377Z,73.65
2022-09-29T09:59:35.115Z,74.33
2022-09-29T10:03:02.256Z,73.96
2022-09-29T10:06:24.296Z,70.72
2022-09-29T10:09:51.163Z,72.51
2022-09-29T10:13:16.360Z,69.49
2022-09-29T10:16:45.997Z,71.98
2022-09-29T10:20:13.332Z,67.32
2022-09-29T10:23:38.715Z,62.95
2022-09-29T10:27:01.901Z,60.54
2022-09-29T10:30:32.597Z,63.49
2022-09-29T10:34:15.275Z,61.90
2022-09-29T10:37:40.576Z,61.91
2022-09-29T10:41:10.418Z,63.56
2022-09-29T10:44:33.309Z,64.46
2022-09-29T10:47:57.656Z,66.43
2022-09-29T10:51:25.217Z,66.34
2022-09-29T10:55:03.936Z,65.76
2022-09-29T10:58:44.479Z,65.54
2022-09-29T11:02:32.990Z,67.54
2022-09-29T11:06:02.243Z,66.99
2022-09-29T11:09:30.203Z,68.30
2022-09-29T11:12:51.838Z,67.25
2022-09-29T11:16:23.183Z,67.29
2022-09-29T11:19:44.863Z,67.18
2022-09-29T11:23:11.311Z,66.99
2022-09-29T11:26:57.672Z,66.59
2022-09-29T11:30:31.363Z,64.28
2022-09-29T11:34:02.371Z,65.74
2022-09-29T11:38:05.604Z,65.69
2022-09-29T11:41:54.641Z,64.87
2022-09-29T11:45:20.627Z,64.14
2022-09-29T11:49:10.828Z,64.62
2022-09-29T11:52:55.690Z,66.27
2022-09-29T11:56:26.571Z,65.25
2022-09-29T12:00:00.357Z,65.67
2022-09-29T12:03:45.187Z,66.34
2022-09-29T12:07:31.947Z,66.00
2022-09-29T12:11:30.092Z,67.33
2022-09-29T12:15:19.960Z,67.32
2022-09-29T12:19:05.899Z,67.99
2022-09-29T12:22:33.218Z,69.37
2022-09-29T12:26:07.507Z,70.23
2022-09-29T12:29:46.072Z,71.84
2022-09-29T12:33:22.943Z,73.86
2022-09-29T12:37:03.646Z,74.29
2022-09-29T12:40:41.452Z,75.32
2022-09-29T12:44:28.814Z,77.57
2022-09-29T12:48:20.043Z,74.41
2022-09-29T12:51:45.822Z,74.80
2022-09-29T12:55:18.209Z,75.08
2022-09-29T12:58:53.150Z,74.54
2022-09-29T13:02:37.871Z,76.62
2022-09-29T13:06:25.200Z,77.31
2022-09-29T13:09:55.509Z,76.63
2022-09-29T13:13:42.861Z,75.54
2022-09-29T13:17:29.958Z,75.47
2022-09-29T13:21:18.032Z,75.68
2022-09-29T13:24:54.760Z,75.96
2022-09-29T13:28:59.907Z,74.32
2022-09-29T13:32:24.233Z,75.65
2022-09-29T13:35:48.569Z,75.26
2022-09-29T13:39:27.226Z,73.84
2022-09-29T13:42:51.341Z,73.21
2022-09-29T13:46:40.611Z,73.06
2022-09-29T13:50:43.711Z,72.79
2022-09-29T13:54:26.259Z,72.36
2022-09-29T13:57:51.389Z,74.34
2022-09-29T14:01:34.827Z,75.15
2022-09-29T14:04:57.182Z,75.46
2022-09-29T14:08:25.361Z,75.90
2022-09-29T14:11:52.519Z,74.84
2022-09-29T14:15:18.320Z,75.38
2022-09-29T14:18:52.356Z,75.04
2022-09-29T14:22:32.420Z,75.22
2022-09-29T14:25:54.464Z,74.87
2022-09-29T14:29:30.211Z,73.96
2022-09-29T14:33:01.383Z,74.01
2022-09-29T14:36:29.380Z,74.33
2022-09-29T14:40:10.546Z,74.19
2022-09-29T14:44:03.027Z,74.48
2022-09-29T14:47:48.971Z,74.56
2022-09-29T14:51:39.156Z,73.90
2022-09-29T14:55:36.902Z,73.48
2022-09-29T14:59:04.716Z,73.32
2022-09-29T15:02:30.806Z,74.05
2022-09-29T15:06:11.734Z,72.57
2022-09-29T15:09:37.045Z,72.49
2022-09-29T15:13:20.143Z,72.75
2022-09-29T15:16:52.698Z,71.46
2022-09-29T15:20:27.770Z,72.01
2022-09-29T15:24:15.468Z,73.50
2022-09-29T15:27:39.501Z,73.37
2022-09-29T15:31:05.188Z,73.14
2022-09-29T15:34:29.310Z,73.06
2022-09-29T15:37:53.328Z,74.09
2022-09-29T15:41:17.846Z,73.51
2022-09-29T15:44:39.400Z,73.93
2022-09-29T15:48:08.305Z,74.47
2022-09-29T15:51:33.061Z,74.72
2022-09-29T15:54:57.046Z,76.02
2022-09-29T15:58:37.010Z,75.36
2022-09-29T16:02:05.865Z,75.23
2022-09-29T16:05:32.565Z,76.27
2022-09-29T16:09:01.458Z,76.55
2022-09-29T16:12:23.343Z,76.35
2022-09-29T16:15:47.307Z,76.44
2022-09-29T16:19:30.629Z,77.08
2022-09-29T16:22:52.354Z,77.02
2022-09-29T16:26:15.862Z,76.73
2022-09-29T16:29:37.765Z,76.94
2022-09-29T16:33:14.088Z,76.40
2022-09-29T16:36:39.000Z,77.13
2022-09-29T16:40:00.769Z,77.63
2022-09-29T16:43:26.457Z,77.77
2022-09-29T16:46:58.019Z,77.49
2022-09-29T16:50:19.878Z,77.68
2022-09-29T16:53:41.537Z,78.50
2022-09-29T16:57:21.455Z,79.06
2022-09-29T17:00:43.277Z,79.38
2022-09-29T17:04:07.765Z,80.17
2022-09-29T17:07:29.379Z,80.43
2022-09-29T17:10:56.221Z,80.52
2022-09-29T17:14:18.653Z,81.13
2022-09-29T17:17:43.164Z,81.19
2022-09-29T17:21:04.802Z,81.51
2022-09-29T17:24:26.763Z,81.15
2022-09-29T17:28:06.721Z,81.34
2022-09-29T17:31:28.496Z,81.74
2022-09-29T17:34:50.060Z,82.02
2022-09-29T17:38:13.705Z,82.25
2022-09-29T17:41:35.229Z,81.95
2022-09-29T17:44:57.708Z,81.84
2022-09-29T17:48:23.814Z,82.21
2022-09-29T17:51:45.404Z,82.50
2022-09-29T17:55:11.782Z,82.71
2022-09-29T17:58:33.334Z,82.66
2022-09-29T18:01:58.126Z,83.31
2022-09-29T18:05:22.641Z,82.30
2022-09-29T18:08:44.166Z,82.41
2022-09-29T18:12:10.936Z,82.65
2022-09-29T18:15:37.862Z,82.56
2022-09-29T18:19:04.041Z,82.33
2022-09-29T18:22:28.356Z,82.62
2022-09-29T18:25:51.536Z,82.68
2022-09-29T18:29:17.011Z,82.82
2022-09-29T18:32:39.297Z,82.73
2022-09-29T18:36:06.034Z,82.42
2022-09-29T18:39:29.844Z,82.35
2022-09-29T18:42:53.105Z,81.85
2022-09-29T18:46:18.511Z,82.93
2022-09-29T18:49:43.521Z,82.59
2022-09-29T18:53:08.051Z,82.61
2022-09-29T18:56:32.018Z,82.78
2022-09-29T18:59:55.860Z,82.27
2022-09-29T19:03:19.212Z,83.45
2022-09-29T19:06:40.876Z,83.18
2022-09-29T19:10:02.502Z,82.96
2022-09-29T19:13:24.517Z,83.25
2022-09-29T19:16:46.020Z,82.66
2022-09-29T19:20:10.920Z,83.53
2022-09-29T19:23:32.416Z,83.75
2022-09-29T19:26:58.866Z,83.89
2022-09-29T19:30:23.043Z,83.26
2022-09-29T19:33:45.349Z,83.77
2022-09-29T19:37:06.894Z,84.00
2022-09-29T19:40:34.337Z,83.46
2022-09-29T19:43:55.902Z,83.51
2022-09-29T19:47:19.993Z,83.62
2022-09-29T19:51:00.198Z,83.92
2022-09-29T19:54:23.792Z,83.58
2022-09-29T19:57:47.760Z,82.79
2022-09-29T20:01:11.717Z,83.24
2022-09-29T20:04:38.417Z,83.70
2022-09-29T20:08:02.603Z,83.84
2022-09-29T20:11:24.188Z,83.82
2022-09-29T20:14:48.901Z,83.74
2022-09-29T20:18:10.479Z,82.74
2022-09-29T20:21:40.414Z,83.38
2022-09-29T20:25:05.353Z,83.41
2022-09-29T20:28:29.264Z,83.81
2022-09-29T20:31:51.271Z,83.29
2022-09-29T20:35:15.948Z,83.94
2022-09-29T20:38:41.962Z,84.28
2022-09-29T20:42:03.880Z,84.53
2022-09-29T20:45:27.731Z,84.46
2022-09-29T20:48:57.204Z,84.12
2022-09-29T20:52:18.730Z,84.08
2022-09-29T20:55:43.254Z,84.27
2022-09-29T20:59:07.510Z,84.08
2022-09-29T21:02:30.369Z,83.95
2022-09-29T21:05:51.997Z,84.19
2022-09-29T21:09:16.641Z,84.15
2022-09-29T21:12:38.426Z,84.02
2022-09-29T21:16:00.673Z,84.31
2022-09-29T21:19:26.043Z,84.38
2022-09-29T21:22:50.707Z,84.12
2022-09-29T21:26:19.935Z,84.18
2022-09-29T21:29:41.452Z,84.54
2022-09-29T21:33:02.997Z,84.90
2022-09-29T21:36:26.731Z,85.18
2022-09-29T21:39:48.283Z,85.90
2022-09-29T21:43:12.071Z,89.11
2022-09-29T21:46:36.645Z,90.14
2022-09-29T21:49:58.247Z,89.28
2022-09-29T21:53:22.210Z,88.97
2022-09-29T21:56:45.412Z,88.60
2022-09-29T22:00:07.545Z,88.48
2022-09-29T22:03:32.175Z,87.78
2022-09-29T22:06:53.758Z,87.14
2022-09-29T22:10:17.935Z,87.13
2022-09-29T22:13:42.801Z,86.73
2022-09-29T22:17:04.393Z,87.07
2022-09-29T22:20:26.867Z,88.12
2022-09-29T22:23:52.431Z,87.99
2022-09-29T22:27:16.430Z,87.78
2022-09-29T22:30:38.732Z,87.83
2022-09-29T22:34:02.678Z,87.44
2022-09-29T22:37:31.116Z,87.35
2022-09-29T22:40:52.915Z,86.97
2022-09-29T22:44:14.453Z,86.91
2022-09-29T22:47:36.093Z,87.16
2022-09-29T22:50:57.616Z,87.30
2022-09-29T22:54:19.102Z,87.08
2022-09-29T22:57:40.635Z,86.45
2022-09-29T23:01:10.239Z,87.39
2022-09-29T23:04:31.878Z,87.54
2022-09-29T23:07:58.689Z,86.60
2022-09-29T23:11:20.478Z,89.27
2022-09-29T23:14:42.042Z,90.30
2022-09-29T23:18:06.088Z,90.06
2022-09-29T23:21:27.911Z,89.94
2022-09-29T23:24:49.734Z,89.98
2022-09-29T23:28:13.936Z,92.66
2022-09-29T23:31:35.602Z,93.58
2022-09-29T23:34:57.119Z,93.60
2022-09-29T23:38:39.561Z,92.45
2022-09-29T23:42:04.111Z,90.89
2022-09-29T23:45:25.737Z,90.80
2022-09-29T23:48:49.933Z,91.17
2022-09-29T23:52:16.330Z,90.16
2022-09-29T23:55:37.987Z,91.36
2022-09-29T23:59:02.323Z,91.72
